Time;durP1;ratioP1;P1;durP2;ratioP2;P2;SDS_P1;SDS_P2;PMS_P1;PMS_P2;Temp;Humidity;BMP_temperature;BMP_pressure;BME280_temperature;BME280_humidity;BME280_pressure;Samples;Min_cycle;Max_cycle;Signal;HPM_P1;HPM_P2
2023/05/06 00:00:48;;;;;;;14.20;5.80;;;;;;;8.99;58.03;101165.13;110810;1206;139366;-69
2023/05/06 00:03:13;;;;;;;10.60;5.50;;;;;;;8.99;58.14;101162.10;111118;1212;99064;-69
2023/05/06 00:05:39;;;;;;;13.40;5.70;;;;;;;9.00;58.14;101155.65;111099;1212;138472;-69
2023/05/06 00:08:05;;;;;;;11.20;4.70;;;;;;;8.98;58.13;101155.35;111017;1212;99108;-70
2023/05/06 00:10:30;;;;;;;22.60;6.70;;;;;;;8.97;58.31;101158.23;111046;1211;99607;-70
2023/05/06 00:12:55;;;;;;;13.80;6.00;;;;;;;8.96;58.31;101158.96;110997;1210;138720;-69
2023/05/06 00:15:21;;;;;;;10.50;5.40;;;;;;;8.94;58.36;101160.81;111032;1212;98926;-69
2023/05/06 00:17:46;;;;;;;11.10;5.50;;;;;;;8.93;58.38;101160.12;110997;1206;138749;-68
2023/05/06 00:20:11;;;;;;;10.90;5.30;;;;;;;8.93;58.50;101159.77;111149;1211;98951;-68
2023/05/06 00:22:37;;;;;;;12.70;5.60;;;;;;;8.95;58.58;101154.55;111126;1206;97855;-69
2023/05/06 00:25:03;;;;;;;12.90;5.00;;;;;;;8.96;58.52;101149.88;110945;1212;139267;-69
2023/05/06 00:27:28;;;;;;;13.80;5.20;;;;;;;8.96;58.66;101155.22;111072;1210;99019;-68
2023/05/06 00:29:53;;;;;;;9.90;5.60;;;;;;;8.99;58.66;101149.97;110973;1212;139064;-69
2023/05/06 00:32:19;;;;;;;11.60;5.90;;;;;;;9.01;58.69;101142.42;111073;1212;100230;-68
2023/05/06 00:34:44;;;;;;;11.70;5.80;;;;;;;9.05;58.75;101143.39;111144;1212;97919;-68
2023/05/06 00:37:10;;;;;;;10.20;4.20;;;;;;;9.08;58.73;101142.56;111015;1210;138650;-68
2023/05/06 00:39:35;;;;;;;6.30;4.30;;;;;;;9.12;58.75;101140.13;111069;1210;99118;-69
2023/05/06 00:42:01;;;;;;;13.50;4.20;;;;;;;9.16;58.80;101140.22;111032;1206;138251;-69
2023/05/06 00:44:27;;;;;;;9.00;4.80;;;;;;;9.19;58.81;101137.45;111075;1212;99976;-68
2023/05/06 00:46:53;;;;;;;7.70;4.40;;;;;;;9.23;58.87;101123.95;111002;1212;99524;-68
2023/05/06 00:49:18;;;;;;;12.40;4.80;;;;;;;9.27;58.93;101117.95;111088;1211;139471;-68
2023/05/06 00:51:44;;;;;;;12.10;4.70;;;;;;;9.30;58.83;101116.23;111091;1212;98640;-68
2023/05/06 00:54:10;;;;;;;11.10;4.90;;;;;;;9.33;58.80;101115.61;111062;1219;139490;-68
2023/05/06 00:56:36;;;;;;;9.20;4.60;;;;;;;9.36;58.79;101111.60;111155;1206;100424;-68
2023/05/06 00:59:01;;;;;;;6.30;3.30;;;;;;;9.37;58.80;101104.95;111019;1206;99050;-68
2023/05/06 01:01:29;;;;;;;8.70;4.10;;;;;;;9.41;58.80;101101.11;110982;1211;137602;-68
2023/05/06 01:03:57;;;;;;;10.40;4.00;;;;;;;9.42;58.80;101099.45;111119;1210;99029;-69
2023/05/06 01:06:31;;;;;;;9.30;4.30;;;;;;;9.44;58.76;101096.71;110925;1212;139242;-69
2023/05/06 01:09:04;;;;;;;10.30;4.10;;;;;;;9.46;58.76;101092.20;111098;1207;100032;-69
2023/05/06 01:11:40;;;;;;;7.60;3.60;;;;;;;9.49;58.72;101093.91;110940;1212;139234;-68
2023/05/06 01:14:19;;;;;;;9.10;3.80;;;;;;;9.50;58.69;101095.30;111227;1212;99005;-68
2023/05/06 01:16:47;;;;;;;8.80;3.80;;;;;;;9.53;58.70;101094.30;111091;1206;98950;-70
2023/05/06 01:19:28;;;;;;;5.20;3.80;;;;;;;9.56;58.67;101093.87;111137;1212;138676;-69
2023/05/06 01:21:55;;;;;;;13.90;3.80;;;;;;;9.56;58.70;101090.98;111032;1211;99938;-69
2023/05/06 01:24:20;;;;;;;9.20;3.90;;;;;;;9.57;58.74;101089.35;111107;1215;138369;-69
2023/05/06 01:26:45;;;;;;;6.00;3.40;;;;;;;9.60;58.65;101086.94;111125;1211;98935;-69
2023/05/06 01:29:11;;;;;;;6.70;3.40;;;;;;;9.60;58.67;101086.05;111021;1206;139521;-68
2023/05/06 01:31:49;;;;;;;9.20;3.70;;;;;;;9.60;58.73;101082.48;111126;1212;101064;-68
2023/05/06 01:34:26;;;;;;;7.60;3.70;;;;;;;9.59;58.71;101087.14;111095;1206;108054;-69
2023/05/06 01:37:05;;;;;;;8.00;3.40;;;;;;;9.59;58.65;101086.45;111002;1212;138583;-68
2023/05/06 01:39:32;;;;;;;6.70;3.90;;;;;;;9.57;58.62;101084.02;111129;1212;99079;-69
2023/05/06 01:42:00;;;;;;;6.20;3.20;;;;;;;9.56;58.71;101083.31;110998;1211;138061;-68
2023/05/06 01:44:28;;;;;;;17.10;4.20;;;;;;;9.56;58.67;101087.61;111053;1212;100049;-69
2023/05/06 01:46:55;;;;;;;12.50;3.80;;;;;;;9.55;58.63;101086.94;111043;1211;99211;-69
2023/05/06 01:49:22;;;;;;;11.40;4.00;;;;;;;9.56;58.68;101094.41;111033;1210;138329;-69
2023/05/06 01:51:48;;;;;;;10.50;3.70;;;;;;;9.54;58.75;101090.14;110971;1207;100580;-69
2023/05/06 01:54:14;;;;;;;8.60;3.90;;;;;;;9.54;58.58;101089.25;110948;1211;140695;-69
2023/05/06 01:56:39;;;;;;;6.80;4.00;;;;;;;9.54;58.74;101087.67;111085;1206;98989;-69
2023/05/06 01:59:04;;;;;;;7.70;3.60;;;;;;;9.54;58.73;101084.45;111107;1206;99541;-69
2023/05/06 02:01:30;;;;;;;10.40;4.50;;;;;;;9.54;58.68;101085.34;111085;1212;138877;-69
2023/05/06 02:03:55;;;;;;;14.80;3.80;;;;;;;9.54;58.70;101086.08;111218;1206;99290;-68
2023/05/06 02:06:20;;;;;;;9.00;3.70;;;;;;;9.55;58.68;101085.15;111086;1206;138747;-69
2023/05/06 02:08:46;;;;;;;11.30;3.90;;;;;;;9.55;58.66;101084.25;111114;1206;99041;-69
2023/05/06 02:11:11;;;;;;;6.70;3.70;;;;;;;9.54;58.68;101080.00;110937;1209;138447;-67
2023/05/06 02:13:37;;;;;;;7.20;3.60;;;;;;;9.53;58.68;101076.98;111213;1211;99603;-68
2023/05/06 02:16:04;;;;;;;7.60;3.50;;;;;;;9.52;58.71;101079.33;111144;1212;98938;-69
2023/05/06 02:18:29;;;;;;;7.70;3.70;;;;;;;9.52;58.68;101077.55;111039;1211;138400;-67
2023/05/06 02:20:54;;;;;;;4.90;3.00;;;;;;;9.52;58.72;101077.37;111184;1206;99008;-67
2023/05/06 02:23:20;;;;;;;7.10;3.60;;;;;;;9.52;58.67;101068.48;111032;1212;138856;-67
2023/05/06 02:25:46;;;;;;;9.40;3.60;;;;;;;9.52;58.69;101066.52;111044;1206;99438;-67
2023/05/06 02:28:11;;;;;;;11.10;3.50;;;;;;;9.52;58.72;101063.66;111185;1212;99123;-68
2023/05/06 02:30:36;;;;;;;5.40;3.10;;;;;;;9.51;58.75;101065.66;111000;1206;140146;-67
2023/05/06 02:33:02;;;;;;;9.30;4.10;;;;;;;9.49;58.78;101061.98;111160;1212;99082;-67
2023/05/06 02:35:27;;;;;;;10.90;3.60;;;;;;;9.47;58.71;101065.76;111067;1211;139852;-67
2023/05/06 02:37:52;;;;;;;12.50;3.80;;;;;;;9.48;58.72;101065.73;111062;1212;99056;-67
2023/05/06 02:40:18;;;;;;;8.30;3.60;;;;;;;9.49;58.85;101064.45;111143;1206;99072;-67
2023/05/06 02:42:43;;;;;;;6.60;3.30;;;;;;;9.50;58.73;101062.30;110973;1212;139292;-68
2023/05/06 02:45:10;;;;;;;6.20;3.10;;;;;;;9.48;58.85;101062.17;111221;1212;100709;-68
2023/05/06 02:47:36;;;;;;;13.60;3.90;;;;;;;9.47;58.84;101060.07;111087;1212;139658;-67
2023/05/06 02:50:02;;;;;;;6.60;3.00;;;;;;;9.47;58.97;101063.29;111081;1206;98968;-68
2023/05/06 02:52:27;;;;;;;7.00;3.90;;;;;;;9.47;58.88;101063.64;111203;1212;99183;-68
2023/05/06 02:54:53;;;;;;;8.20;3.60;;;;;;;9.46;59.01;101060.45;110938;1209;138633;-67
2023/05/06 02:57:18;;;;;;;11.80;5.00;;;;;;;9.45;58.94;101062.62;111171;1209;98950;-67
2023/05/06 02:59:44;;;;;;;12.60;3.60;;;;;;;9.46;58.97;101064.20;111012;1206;139135;-67
2023/05/06 03:02:09;;;;;;;7.70;4.00;;;;;;;9.44;59.02;101061.94;111130;1212;99645;-67
2023/05/06 03:04:35;;;;;;;12.00;4.10;;;;;;;9.44;58.97;101059.09;111168;1206;99592;-67
2023/05/06 03:07:00;;;;;;;7.80;3.20;;;;;;;9.44;59.07;101057.84;110958;1212;139644;-68
2023/05/06 03:09:25;;;;;;;7.80;4.10;;;;;;;9.43;59.05;101050.90;111052;1206;99983;-67
2023/05/06 03:11:51;;;;;;;7.70;3.60;;;;;;;9.42;59.07;101060.02;111003;1211;139295;-67
2023/05/06 03:14:16;;;;;;;6.10;3.20;;;;;;;9.43;59.08;101068.74;111128;1212;99095;-67
2023/05/06 03:16:41;;;;;;;7.00;3.80;;;;;;;9.40;59.13;101062.58;111090;1206;99012;-67
2023/05/06 03:19:07;;;;;;;13.10;4.00;;;;;;;9.38;59.18;101062.48;111006;1207;139129;-67
2023/05/06 03:21:32;;;;;;;6.70;3.40;;;;;;;9.37;59.18;101058.23;111199;1212;99670;-67
2023/05/06 03:23:58;;;;;;;7.90;3.90;;;;;;;9.37;59.29;101057.89;110918;1206;137947;-67
2023/05/06 03:26:24;;;;;;;7.30;3.90;;;;;;;9.37;59.42;101055.40;111146;1211;99008;-67
2023/05/06 03:28:49;;;;;;;8.20;4.40;;;;;;;9.39;59.40;101056.76;111366;1206;99016;-67
2023/05/06 03:31:15;;;;;;;8.40;3.90;;;;;;;9.39;59.31;101056.56;111050;1211;138360;-67
2023/05/06 03:33:40;;;;;;;6.60;3.20;;;;;;;9.40;59.42;101053.31;111085;1207;98956;-67
2023/05/06 03:36:06;;;;;;;8.10;3.90;;;;;;;9.41;59.38;101051.69;111177;1212;139364;-67
2023/05/06 03:38:31;;;;;;;4.90;3.10;;;;;;;9.41;59.35;101055.63;111120;1212;98935;-68
2023/05/06 03:40:56;;;;;;;8.90;3.80;;;;;;;9.39;59.27;101052.64;111170;1212;100426;-67
2023/05/06 03:43:22;;;;;;;9.20;4.30;;;;;;;9.37;59.44;101055.20;111054;1209;139416;-67
2023/05/06 03:45:47;;;;;;;9.50;3.70;;;;;;;9.35;59.39;101056.52;111097;1222;98944;-67
2023/05/06 03:48:12;;;;;;;5.50;3.70;;;;;;;9.32;59.50;101056.98;111074;1210;140687;-67
2023/05/06 03:50:37;;;;;;;6.10;3.60;;;;;;;9.33;59.54;101055.52;111096;1212;99022;-68
2023/05/06 03:53:03;;;;;;;8.00;3.90;;;;;;;9.32;59.53;101055.90;111079;1206;99031;-69
2023/05/06 03:55:28;;;;;;;10.00;3.60;;;;;;;9.31;59.55;101053.44;110967;1206;139137;-68
2023/05/06 03:57:54;;;;;;;11.30;4.60;;;;;;;9.28;59.68;101053.52;111071;1222;98928;-68
2023/05/06 04:00:19;;;;;;;7.70;4.00;;;;;;;9.28;59.71;101051.74;110975;1212;139108;-68
2023/05/06 04:02:46;;;;;;;6.80;3.50;;;;;;;9.28;59.84;101047.28;111091;1212;98952;-67
2023/05/06 04:05:11;;;;;;;7.70;4.00;;;;;;;9.27;59.87;101045.52;111023;1212;138620;-64
2023/05/06 04:07:38;;;;;;;13.50;3.40;;;;;;;9.29;59.94;101047.44;111131;1211;99023;-68
2023/05/06 04:10:04;;;;;;;8.30;3.50;;;;;;;9.29;59.92;101046.56;111017;1206;98941;-67
2023/05/06 04:12:29;;;;;;;13.30;4.00;;;;;;;9.26;60.02;101050.56;111198;1211;138484;-67
2023/05/06 04:14:54;;;;;;;13.20;4.20;;;;;;;9.24;60.16;101054.01;111107;1206;99089;-67
2023/05/06 04:17:19;;;;;;;7.30;3.80;;;;;;;9.22;60.15;101057.11;110921;1210;139471;-67
2023/05/06 04:19:46;;;;;;;10.40;3.80;;;;;;;9.23;60.24;101059.92;111143;1206;99095;-68
2023/05/06 04:22:11;;;;;;;7.50;3.80;;;;;;;9.23;60.24;101057.27;111097;1211;112990;-68
2023/05/06 04:24:37;;;;;;;6.80;3.80;;;;;;;9.23;60.30;101060.83;111040;1210;138589;-69
2023/05/06 04:27:03;;;;;;;7.70;3.90;;;;;;;9.24;60.45;101062.59;111057;1212;100023;-68
2023/05/06 04:29:28;;;;;;;9.00;3.80;;;;;;;9.25;60.55;101062.19;110881;1212;139701;-67
2023/05/06 04:31:54;;;;;;;13.50;3.70;;;;;;;9.28;60.51;101063.52;111073;1212;99533;-67
2023/05/06 04:34:19;;;;;;;10.50;3.80;;;;;;;9.30;60.57;101064.16;111183;1206;99143;-69
2023/05/06 04:36:46;;;;;;;10.70;3.70;;;;;;;9.34;60.61;101063.87;110937;1206;139422;-67
2023/05/06 04:39:13;;;;;;;10.00;4.00;;;;;;;9.38;60.66;101059.08;111165;1212;98995;-68
2023/05/06 04:41:38;;;;;;;11.30;4.50;;;;;;;9.42;60.75;101060.92;111032;1212;139422;-67
2023/05/06 04:44:04;;;;;;;9.60;4.10;;;;;;;9.46;60.67;101056.89;111031;1206;99015;-67
2023/05/06 04:46:29;;;;;;;5.90;3.90;;;;;;;9.50;60.73;101057.45;111070;1212;98960;-67
2023/05/06 04:48:55;;;;;;;7.20;3.70;;;;;;;9.54;60.76;101056.81;111029;1207;138780;-67
2023/05/06 04:51:21;;;;;;;6.80;3.60;;;;;;;9.56;60.71;101055.13;111140;1210;100587;-67
2023/05/06 04:53:46;;;;;;;11.10;4.20;;;;;;;9.59;60.73;101047.37;110999;1206;138955;-67
2023/05/06 04:56:11;;;;;;;14.10;4.40;;;;;;;9.61;60.81;101051.75;111232;1212;98985;-67
2023/05/06 04:58:36;;;;;;;9.00;3.80;;;;;;;9.63;60.79;101054.02;110969;1211;99200;-68
2023/05/06 05:01:08;;;;;;;15.00;4.10;;;;;;;9.62;60.86;101057.41;111023;1219;138750;-67
2023/05/06 05:03:33;;;;;;;11.00;4.10;;;;;;;9.62;60.94;101063.85;111135;1211;98928;-67
2023/05/06 05:05:59;;;;;;;8.10;4.00;;;;;;;9.64;60.95;101064.33;110969;1206;138185;-67
2023/05/06 05:08:25;;;;;;;11.60;4.00;;;;;;;9.64;60.98;101062.73;111187;1225;99428;-68
2023/05/06 05:10:50;;;;;;;16.80;4.30;;;;;;;9.64;61.02;101064.51;111135;1206;99094;-67
2023/05/06 05:13:15;;;;;;;8.60;4.10;;;;;;;9.64;61.16;101062.38;110934;1210;139778;-67
2023/05/06 05:15:40;;;;;;;11.70;4.70;;;;;;;9.61;61.11;101064.60;111208;1209;98948;-68
2023/05/06 05:18:06;;;;;;;13.70;4.40;;;;;;;9.59;61.27;101062.34;110968;1212;139540;-67
2023/05/06 05:20:31;;;;;;;6.90;3.40;;;;;;;9.61;61.29;101065.50;111201;1212;98935;-67
2023/05/06 05:22:57;;;;;;;10.20;3.70;;;;;;;9.61;61.27;101067.98;111126;1207;99030;-68
2023/05/06 05:25:22;;;;;;;8.40;3.30;;;;;;;9.59;61.29;101065.55;110984;1209;139720;-68
2023/05/06 05:27:47;;;;;;;7.30;3.70;;;;;;;9.61;61.50;101065.33;111077;1211;99083;-68
2023/05/06 05:30:13;;;;;;;11.90;4.40;;;;;;;9.61;61.41;101063.34;110979;1222;139033;-68
2023/05/06 05:32:38;;;;;;;14.90;4.40;;;;;;;9.62;61.64;101064.39;111244;1211;99085;-68
2023/05/06 05:35:05;;;;;;;12.20;3.60;;;;;;;9.62;61.60;101067.95;111110;1212;99060;-68
2023/05/06 05:37:31;;;;;;;8.90;3.60;;;;;;;9.60;61.79;101068.55;111059;1209;139040;-68
2023/05/06 05:39:57;;;;;;;11.40;4.70;;;;;;;9.58;61.69;101063.79;111065;1206;98854;-68
2023/05/06 05:42:22;;;;;;;13.70;4.50;;;;;;;9.55;61.81;101064.61;111066;1218;138730;-68
2023/05/06 05:44:47;;;;;;;8.70;3.90;;;;;;;9.53;61.84;101061.14;111104;1207;99056;-68
2023/05/06 05:47:14;;;;;;;10.10;4.30;;;;;;;9.49;62.04;101061.98;111137;1209;98957;-68
2023/05/06 05:49:39;;;;;;;13.00;4.00;;;;;;;9.49;62.12;101060.16;111265;1210;99421;-67
2023/05/06 05:52:06;;;;;;;8.00;4.20;;;;;;;9.48;62.14;101057.54;111147;1211;99440;-68
2023/05/06 05:54:32;;;;;;;9.00;4.90;;;;;;;9.41;62.33;101053.82;111069;1209;138767;-67
2023/05/06 05:56:57;;;;;;;13.40;4.40;;;;;;;9.41;62.45;101052.76;111095;1219;98959;-68
2023/05/06 05:59:23;;;;;;;7.80;3.90;;;;;;;9.40;62.59;101052.24;111030;1212;139068;-67
2023/05/06 06:01:48;;;;;;;5.70;3.60;;;;;;;9.40;62.61;101051.36;111151;1206;100579;-68
2023/05/06 06:04:13;;;;;;;11.10;4.50;;;;;;;9.38;62.71;101049.99;110966;1209;98989;-68
2023/05/06 06:06:40;;;;;;;11.90;4.10;;;;;;;9.37;62.78;101047.34;110933;1205;139405;-67
2023/05/06 06:09:06;;;;;;;10.60;4.10;;;;;;;9.39;63.07;101044.09;111174;1206;112222;-67
2023/05/06 06:11:31;;;;;;;8.90;4.40;;;;;;;9.39;63.11;101046.94;110892;1206;138956;-67
2023/05/06 06:13:57;;;;;;;13.60;4.60;;;;;;;9.39;63.09;101051.02;111069;1206;99143;-67
2023/05/06 06:16:22;;;;;;;6.60;3.90;;;;;;;9.37;63.22;101049.48;111024;1209;98977;-67
2023/05/06 06:18:47;;;;;;;8.50;3.50;;;;;;;9.37;63.33;101049.48;110876;1206;138952;-67
2023/05/06 06:21:13;;;;;;;9.50;4.40;;;;;;;9.35;63.31;101047.98;111067;1206;99050;-67
2023/05/06 06:23:38;;;;;;;10.40;4.10;;;;;;;9.33;63.54;101050.34;110818;1206;139348;-68
2023/05/06 06:26:03;;;;;;;10.30;4.20;;;;;;;9.32;63.54;101048.06;111060;1210;98932;-67
2023/05/06 06:28:28;;;;;;;6.70;4.20;;;;;;;9.29;63.68;101046.72;110967;1211;99169;-66
2023/05/06 06:30:54;;;;;;;8.80;3.80;;;;;;;9.31;63.81;101048.98;110899;1218;138464;-67
2023/05/06 06:33:19;;;;;;;8.60;3.90;;;;;;;9.30;63.88;101042.22;111081;1206;99063;-66
2023/05/06 06:35:44;;;;;;;7.30;3.40;;;;;;;9.27;63.92;101044.11;110944;1211;139567;-66
2023/05/06 06:38:10;;;;;;;10.30;4.50;;;;;;;9.26;63.97;101045.05;111166;1222;99025;-66
2023/05/06 06:40:35;;;;;;;11.90;4.00;;;;;;;9.25;64.19;101043.63;111032;1206;99005;-66
2023/05/06 06:43:00;;;;;;;9.60;4.10;;;;;;;9.23;64.15;101040.68;110935;1206;140737;-68
2023/05/06 06:45:25;;;;;;;10.70;4.30;;;;;;;9.18;64.35;101039.58;111045;1210;99061;-67
2023/05/06 06:47:51;;;;;;;10.30;4.20;;;;;;;9.19;64.61;101038.66;110951;1206;140643;-66
2023/05/06 06:50:17;;;;;;;7.20;4.40;;;;;;;9.23;64.68;101040.34;111138;1207;98999;-66
2023/05/06 06:52:43;;;;;;;9.50;4.30;;;;;;;9.23;64.66;101036.75;110918;1211;98940;-67
2023/05/06 06:55:08;;;;;;;10.60;4.00;;;;;;;9.23;64.80;101037.27;110964;1212;138495;-66
2023/05/06 06:57:35;;;;;;;12.60;4.20;;;;;;;9.23;64.85;101036.05;111011;1211;99041;-67
2023/05/06 07:00:03;;;;;;;9.10;3.90;;;;;;;9.22;65.05;101035.89;110924;1212;138779;-66
2023/05/06 07:02:29;;;;;;;6.60;4.10;;;;;;;9.25;65.22;101034.36;113344;1205;97139;-66
2023/05/06 07:04:55;;;;;;;10.70;4.60;;;;;;;9.28;65.21;101035.88;113278;1206;101647;-66
2023/05/06 07:07:21;;;;;;;9.10;4.40;;;;;;;9.33;65.26;101042.86;111691;1209;139400;-66
2023/05/06 07:09:46;;;;;;;13.00;4.90;;;;;;;9.35;65.34;101044.20;110981;1210;99015;-62
2023/05/06 07:12:11;;;;;;;8.60;4.40;;;;;;;9.37;65.34;101045.55;110905;1211;139055;-62
2023/05/06 07:14:36;;;;;;;9.20;5.20;;;;;;;9.37;65.29;101046.09;111061;1211;99140;-61
2023/05/06 07:17:02;;;;;;;6.20;4.20;;;;;;;9.35;65.45;101048.84;110976;1211;99754;-62
2023/05/06 07:19:28;;;;;;;13.40;4.60;;;;;;;9.35;65.47;101046.55;110900;1212;139979;-61
2023/05/06 07:21:54;;;;;;;8.20;4.70;;;;;;;9.34;65.56;101051.72;111180;1206;99879;-60
2023/05/06 07:24:19;;;;;;;11.30;4.10;;;;;;;9.37;65.67;101052.89;110898;1206;139455;-62
2023/05/06 07:26:46;;;;;;;12.30;4.70;;;;;;;9.38;65.59;101049.83;111085;1206;99040;-63
2023/05/06 07:29:11;;;;;;;14.30;4.10;;;;;;;9.37;65.70;101052.36;110990;1205;111562;-61
2023/05/06 07:31:36;;;;;;;12.70;4.00;;;;;;;9.34;65.68;101053.87;110869;1210;138815;-62
2023/05/06 07:34:01;;;;;;;9.10;3.90;;;;;;;9.30;65.71;101056.67;110987;1206;100709;-62
2023/05/06 07:36:27;;;;;;;8.40;4.50;;;;;;;9.25;65.76;101057.91;110954;1211;138791;-62
2023/05/06 07:38:53;;;;;;;9.20;4.30;;;;;;;9.26;65.94;101059.12;111071;1211;99065;-62
2023/05/06 07:41:18;;;;;;;8.50;3.90;;;;;;;9.25;65.91;101060.77;110899;1208;139205;-62
2023/05/06 07:43:44;;;;;;;10.20;4.00;;;;;;;9.25;66.02;101059.88;110735;1209;99054;-62
2023/05/06 07:46:10;;;;;;;10.80;4.30;;;;;;;9.25;66.01;101059.69;111023;1210;99268;-65
2023/05/06 07:48:35;;;;;;;9.00;3.60;;;;;;;9.27;66.12;101059.10;110867;1212;138824;-63
2023/05/06 07:51:01;;;;;;;6.20;4.00;;;;;;;9.28;66.10;101059.06;110924;1208;99053;-62
2023/05/06 07:53:27;;;;;;;8.10;3.70;;;;;;;9.22;66.11;101059.61;110853;1211;138905;-61
2023/05/06 07:55:57;;;;;;;11.30;3.90;;;;;;;9.14;66.18;101061.83;111048;1211;99034;-61
2023/05/06 07:58:22;;;;;;;12.90;4.50;;;;;;;9.04;66.34;101066.20;111083;1206;99752;-62
2023/05/06 08:00:48;;;;;;;10.70;4.50;;;;;;;9.03;66.47;101071.79;110893;1211;140350;-62
2023/05/06 08:03:15;;;;;;;6.90;4.20;;;;;;;9.00;66.50;101075.09;111146;1210;99135;-64
2023/05/06 08:05:40;;;;;;;11.00;6.40;;;;;;;8.98;66.64;101077.80;111003;1211;139269;-65
2023/05/06 08:08:05;;;;;;;10.30;4.40;;;;;;;8.97;66.72;101080.51;111026;1213;98925;-63
2023/05/06 08:10:31;;;;;;;8.80;4.30;;;;;;;8.98;66.84;101081.55;111154;1205;99025;-62
2023/05/06 08:12:56;;;;;;;11.70;4.50;;;;;;;8.98;66.86;101085.85;111033;1211;143963;-62
2023/05/06 08:15:21;;;;;;;7.80;4.90;;;;;;;8.92;66.79;101089.94;111123;1206;99049;-64
2023/05/06 08:17:46;;;;;;;8.60;4.20;;;;;;;8.88;66.95;101090.95;111021;1211;138975;-63
2023/05/06 08:20:13;;;;;;;6.40;4.00;;;;;;;8.87;67.07;101089.20;111198;1206;98954;-64
2023/05/06 08:22:38;;;;;;;9.80;4.40;;;;;;;8.85;67.31;101088.00;111306;1206;112664;-64
2023/05/06 08:25:04;;;;;;;6.50;3.80;;;;;;;8.88;67.31;101087.56;110950;1218;140165;-64
2023/05/06 08:27:29;;;;;;;11.20;4.50;;;;;;;8.85;67.22;101083.20;111173;1211;100546;-63
2023/05/06 08:29:54;;;;;;;8.30;3.90;;;;;;;8.78;67.43;101083.02;110894;1211;139742;-65
2023/05/06 08:32:20;;;;;;;6.90;4.20;;;;;;;8.80;67.58;101081.21;111212;1205;99089;-63
2023/05/06 08:34:45;;;;;;;8.80;3.60;;;;;;;8.82;67.66;101079.91;111040;1208;108377;-63
2023/05/06 08:37:10;;;;;;;15.30;5.10;;;;;;;8.82;67.67;101080.77;111037;1212;140946;-63
2023/05/06 08:39:35;;;;;;;10.50;4.90;;;;;;;8.83;67.83;101079.88;111212;1221;97837;-62
2023/05/06 08:42:02;;;;;;;12.20;3.90;;;;;;;8.81;67.92;101082.58;110965;1210;139053;-63
2023/05/06 08:44:28;;;;;;;12.40;4.90;;;;;;;8.79;67.94;101083.53;111089;1211;98970;-62
2023/05/06 08:46:54;;;;;;;12.10;4.40;;;;;;;8.73;67.99;101090.31;111030;1205;99488;-63
2023/05/06 08:49:20;;;;;;;12.30;4.50;;;;;;;8.71;68.20;101090.02;110949;1211;138827;-66
2023/05/06 08:51:48;;;;;;;12.40;4.80;;;;;;;8.69;68.29;101087.20;111218;1211;102030;-62
2023/05/06 08:54:15;;;;;;;8.70;4.10;;;;;;;8.67;68.37;101085.65;111067;1206;139259;-62
2023/05/06 08:56:45;;;;;;;11.30;4.50;;;;;;;8.62;68.49;101086.00;111069;1205;98918;-63
2023/05/06 08:59:12;;;;;;;10.40;4.30;;;;;;;8.64;68.99;101079.33;111105;1211;112901;-64
2023/05/06 09:01:38;;;;;;;12.30;4.20;;;;;;;8.72;68.91;101070.91;110925;1211;139511;-64
2023/05/06 09:04:05;;;;;;;11.90;5.20;;;;;;;8.74;69.01;101072.09;111137;1209;99151;-64
2023/05/06 09:06:31;;;;;;;7.30;4.20;;;;;;;8.78;69.18;101074.64;110960;1210;140289;-63
2023/05/06 09:08:57;;;;;;;12.20;4.60;;;;;;;8.83;69.26;101071.84;111146;1206;98958;-64
2023/05/06 09:11:29;;;;;;;16.20;5.60;;;;;;;8.83;69.30;101071.13;110956;1211;139779;-63
2023/05/06 09:14:08;;;;;;;10.50;4.00;;;;;;;8.86;69.38;101074.42;111053;1206;108157;-62
2023/05/06 09:16:33;;;;;;;13.00;4.20;;;;;;;8.81;69.28;101069.77;111081;1210;99155;-65
2023/05/06 09:18:59;;;;;;;10.00;4.00;;;;;;;8.74;69.41;101066.40;110921;1209;139672;-64
2023/05/06 09:21:36;;;;;;;8.00;4.30;;;;;;;8.71;69.45;101060.98;111064;1206;99043;-64
2023/05/06 09:24:03;;;;;;;10.40;4.20;;;;;;;8.67;69.51;101056.10;110806;1211;138697;-66
2023/05/06 09:26:32;;;;;;;11.00;4.80;;;;;;;8.58;69.55;101044.40;111049;1211;98946;-64
2023/05/06 09:28:58;;;;;;;8.20;4.10;;;;;;;8.57;69.77;101042.50;111042;1211;101971;-63
2023/05/06 09:31:26;;;;;;;14.90;4.90;;;;;;;8.57;69.83;101041.79;110898;1212;139415;-64
2023/05/06 09:33:52;;;;;;;17.10;4.50;;;;;;;8.57;69.90;101043.02;110827;1211;98861;-64
2023/05/06 09:36:20;;;;;;;9.20;4.70;;;;;;;8.60;69.97;101043.84;110799;1205;139527;-63
2023/05/06 09:38:46;;;;;;;8.80;4.50;;;;;;;8.64;70.08;101045.84;110945;1211;99111;-63
2023/05/06 09:41:12;;;;;;;9.20;4.80;;;;;;;8.63;70.17;101041.06;111210;1206;98933;-63
2023/05/06 09:43:41;;;;;;;9.20;4.70;;;;;;;8.64;70.39;101042.27;111634;1211;138794;-63
2023/05/06 09:46:07;;;;;;;12.10;5.60;;;;;;;8.73;70.45;101050.23;110953;1211;108086;-63
2023/05/06 09:48:34;;;;;;;10.20;5.60;;;;;;;8.77;70.50;101050.63;112782;1206;139443;-63
2023/05/06 09:51:00;;;;;;;9.10;4.80;;;;;;;8.80;70.60;101055.17;111005;1207;99025;-64
2023/05/06 09:53:28;;;;;;;11.50;4.30;;;;;;;8.80;70.60;101063.91;111020;1211;139443;-63
2023/05/06 09:55:56;;;;;;;11.80;4.70;;;;;;;8.87;70.68;101066.39;112283;1206;107365;-63
2023/05/06 09:58:22;;;;;;;10.90;4.90;;;;;;;8.89;70.59;101072.39;111027;1206;99794;-63
2023/05/06 10:00:50;;;;;;;12.10;4.90;;;;;;;8.88;70.65;101067.08;110876;1211;138662;-63
2023/05/06 10:03:17;;;;;;;11.70;5.70;;;;;;;8.91;70.78;101059.31;110963;1211;99799;-63
2023/05/06 10:05:44;;;;;;;11.60;5.10;;;;;;;8.93;70.88;101055.48;111003;1211;140802;-63
2023/05/06 10:08:14;;;;;;;12.00;5.50;;;;;;;8.95;70.77;101055.11;111046;1206;99050;-65
2023/05/06 10:10:40;;;;;;;13.20;5.00;;;;;;;8.88;70.92;101051.55;111060;1206;99034;-63
2023/05/06 10:13:07;;;;;;;14.10;5.60;;;;;;;8.83;71.04;101047.98;110932;1211;138649;-63
2023/05/06 10:15:33;;;;;;;17.20;6.30;;;;;;;8.82;71.03;101046.75;111176;1211;98930;-64
2023/05/06 10:18:03;;;;;;;14.70;6.00;;;;;;;8.86;71.32;101042.00;110938;1207;140598;-63
2023/05/06 10:20:30;;;;;;;10.80;5.30;;;;;;;8.89;71.31;101034.42;110882;1206;99525;-63
2023/05/06 10:23:20;;;;;;;11.70;5.10;;;;;;;8.74;71.19;101037.52;110889;1205;99007;-63
2023/05/06 10:25:50;;;;;;;9.10;4.70;;;;;;;8.61;71.60;101039.16;110894;1211;114790;-64
2023/05/06 10:28:19;;;;;;;10.00;5.30;;;;;;;8.60;71.69;101039.38;113299;1205;99616;-64
2023/05/06 10:30:46;;;;;;;9.40;5.50;;;;;;;8.51;71.72;101035.54;113111;1205;138814;-64
2023/05/06 10:33:15;;;;;;;10.20;4.90;;;;;;;8.42;71.89;101026.19;113281;1206;98910;-64
2023/05/06 10:35:55;;;;;;;9.80;5.10;;;;;;;8.39;72.07;101013.98;113136;1205;139587;-64
2023/05/06 10:38:39;;;;;;;12.40;5.40;;;;;;;8.31;72.16;101016.70;111162;1206;112387;-64
2023/05/06 10:41:06;;;;;;;13.10;5.20;;;;;;;8.25;72.35;101013.83;111185;1211;99319;-64
2023/05/06 10:43:33;;;;;;;11.80;5.70;;;;;;;8.24;72.43;101015.10;110996;1207;138989;-65
2023/05/06 10:45:59;;;;;;;11.70;5.90;;;;;;;8.27;72.48;101011.80;110927;1211;98978;-65
2023/05/06 10:48:29;;;;;;;11.60;6.30;;;;;;;8.23;72.49;101012.26;111019;1206;138568;-64
2023/05/06 10:51:36;;;;;;;12.00;6.10;;;;;;;8.18;72.70;101007.95;111094;1211;112779;-65
2023/05/06 10:54:03;;;;;;;13.40;5.50;;;;;;;8.12;72.90;101000.81;110714;1223;140563;-63
2023/05/06 10:56:29;;;;;;;15.90;6.10;;;;;;;8.12;73.04;100997.08;111112;1211;100069;-65
2023/05/06 10:58:56;;;;;;;9.80;5.10;;;;;;;8.09;73.31;100998.04;111036;1207;102281;-65
2023/05/06 11:01:25;;;;;;;11.30;6.20;;;;;;;8.07;73.49;101000.42;111221;1207;140911;-64
2023/05/06 11:03:51;;;;;;;12.00;6.30;;;;;;;8.02;73.65;101001.43;111028;1206;100168;-66
2023/05/06 11:06:43;;;;;;;15.30;6.20;;;;;;;8.02;73.80;100999.67;110906;1206;139489;-64
2023/05/06 11:09:18;;;;;;;13.70;5.90;;;;;;;7.99;74.10;100997.96;111028;1205;98972;-64
2023/05/06 11:12:05;;;;;;;14.60;5.60;;;;;;;7.98;74.48;101001.74;113113;1205;138962;-66
2023/05/06 11:14:37;;;;;;;14.00;6.40;;;;;;;7.93;75.05;100999.21;113215;1205;112774;-64